createdAt,value
2018-11-03T00:03:19.317Z,1.27
2018-11-03T00:08:22.836Z,1.47
2018-11-03T00:13:26.125Z,1.47
2018-11-03T00:18:29.432Z,1.50
2018-11-03T00:23:32.721Z,1.50
2018-11-03T00:28:36.013Z,1.33
2018-11-03T00:33:39.304Z,1.47
2018-11-03T00:38:42.596Z,1.42
2018-11-03T00:43:45.916Z,1.25
2018-11-03T00:48:49.199Z,1.40
2018-11-03T00:53:52.502Z,1.40
2018-11-03T00:58:55.947Z,1.42
2018-11-03T01:03:59.233Z,1.30
2018-11-03T01:09:02.514Z,1.25
2018-11-03T01:14:05.802Z,1.17
2018-11-03T01:19:09.090Z,1.10
2018-11-03T01:24:12.364Z,1.92
2018-11-03T01:29:15.669Z,1.45
2018-11-03T01:34:18.961Z,1.30
2018-11-03T01:39:22.322Z,1.07
2018-11-03T01:44:25.690Z,1.37
2018-11-03T01:49:28.981Z,1.50
2018-11-03T01:54:32.265Z,1.50
2018-11-03T01:59:35.545Z,1.30
2018-11-03T02:04:38.875Z,1.47
2018-11-03T02:09:42.165Z,1.20
2018-11-03T02:14:45.488Z,1.37
2018-11-03T02:19:48.757Z,1.42
2018-11-03T02:24:52.070Z,1.30
2018-11-03T02:29:55.403Z,1.03
2018-11-03T02:34:58.706Z,1.03
2018-11-03T02:40:02.042Z,1.50
2018-11-03T02:45:07.071Z,0.83
2018-11-03T02:50:12.361Z,0.98
2018-11-03T02:55:15.656Z,1.20
2018-11-03T03:00:18.937Z,1.10
2018-11-03T03:05:22.230Z,1.10
2018-11-03T03:10:25.513Z,1.20
2018-11-03T03:15:28.825Z,1.05
2018-11-03T03:20:32.129Z,1.30
2018-11-03T03:25:35.418Z,1.20
2018-11-03T03:30:38.813Z,1.30
2018-11-03T03:35:42.097Z,1.10
2018-11-03T03:40:45.377Z,1.23
2018-11-03T03:45:48.677Z,1.20
2018-11-03T03:50:52.051Z,1.10
2018-11-03T03:55:55.349Z,0.87
2018-11-03T04:00:58.818Z,1.20
2018-11-03T04:06:02.104Z,1.20
2018-11-03T04:11:05.658Z,1.25
2018-11-03T04:16:08.948Z,1.10
2018-11-03T04:21:16.423Z,0.97
2018-11-03T04:26:19.759Z,0.90
2018-11-03T04:31:23.066Z,1.35
2018-11-03T04:36:26.421Z,1.02
2018-11-03T04:41:29.726Z,0.90
2018-11-03T04:46:33.052Z,1.32
2018-11-03T04:51:36.400Z,0.90
2018-11-03T04:56:39.718Z,1.20
2018-11-03T05:01:43.061Z,1.27
2018-11-03T05:06:46.416Z,1.10
2018-11-03T05:11:49.725Z,1.00
2018-11-03T05:16:53.045Z,1.25
2018-11-03T05:21:56.533Z,1.12
2018-11-03T05:26:59.866Z,1.15
2018-11-03T05:32:03.185Z,1.10
2018-11-03T05:37:06.768Z,1.20
2018-11-03T05:42:10.069Z,1.20
2018-11-03T05:47:13.386Z,0.95
2018-11-03T05:52:16.715Z,1.10
2018-11-03T05:57:20.051Z,1.00
2018-11-03T06:02:23.369Z,0.80
2018-11-03T06:07:26.710Z,0.88
2018-11-03T06:12:30.019Z,1.17
2018-11-03T06:17:34.172Z,0.98
2018-11-03T06:22:37.594Z,0.90
2018-11-03T06:27:40.947Z,1.10
2018-11-03T06:32:44.253Z,1.10
2018-11-03T06:37:47.577Z,1.12
2018-11-03T06:42:50.890Z,1.00
2018-11-03T06:47:54.200Z,1.10
2018-11-03T06:52:57.645Z,1.27
2018-11-03T06:58:00.990Z,1.12
2018-11-03T07:03:04.481Z,2.30
2018-11-03T07:08:07.982Z,2.12
2018-11-03T07:13:11.385Z,2.52
2018-11-03T07:18:14.639Z,1.95
2018-11-03T07:23:17.970Z,2.02
2018-11-03T07:28:21.333Z,2.62
2018-11-03T07:33:24.633Z,2.55
2018-11-03T07:38:28.079Z,2.25
2018-11-03T07:43:31.408Z,2.62
2018-11-03T07:48:34.820Z,2.37
2018-11-03T07:53:38.175Z,2.52
2018-11-03T07:58:41.573Z,2.47
2018-11-03T08:03:44.903Z,1.87
2018-11-03T08:08:48.313Z,2.62
2018-11-03T08:13:51.608Z,2.40
2018-11-03T08:18:54.906Z,2.15
2018-11-03T08:23:58.584Z,2.47
2018-11-03T08:29:01.911Z,2.50
2018-11-03T08:34:05.520Z,2.95
2018-11-03T08:39:09.870Z,2.98
2018-11-03T08:44:13.148Z,5.15
2018-11-03T08:49:16.432Z,6.78
2018-11-03T08:54:19.725Z,7.45
2018-11-03T08:59:23.254Z,6.78
2018-11-03T09:04:26.562Z,5.65
2018-11-03T09:09:29.858Z,4.87
2018-11-03T09:14:33.226Z,4.20
2018-11-03T09:19:36.478Z,4.60
2018-11-03T09:24:39.766Z,3.70
2018-11-03T09:29:43.053Z,2.57
2018-11-03T09:34:46.493Z,2.97
2018-11-03T09:39:49.750Z,3.15
2018-11-03T09:44:53.040Z,3.17
2018-11-03T09:49:56.353Z,2.80
2018-11-03T09:54:59.658Z,3.02
2018-11-03T10:00:03.325Z,3.27
2018-11-03T10:05:07.107Z,2.50
2018-11-03T10:10:13.253Z,2.60
2018-11-03T10:15:18.006Z,3.00
2018-11-03T10:20:21.307Z,16.97
2018-11-03T10:25:24.594Z,7.10
2018-11-03T10:30:27.905Z,5.90
2018-11-03T10:35:31.220Z,4.87
2018-11-03T10:40:34.505Z,4.83
2018-11-03T10:45:37.789Z,5.45
2018-11-03T10:50:41.082Z,4.47
2018-11-03T10:55:44.390Z,4.85
2018-11-03T11:00:53.053Z,3.75
2018-11-03T11:06:01.617Z,3.90
2018-11-03T11:11:10.259Z,4.25
2018-11-03T11:16:13.631Z,4.45
2018-11-03T11:21:16.877Z,3.37
2018-11-03T11:26:20.150Z,3.77
2018-11-03T11:31:23.481Z,3.70
2018-11-03T11:36:26.731Z,4.67
2018-11-03T11:41:30.021Z,6.85
2018-11-03T11:46:33.404Z,8.88
2018-11-03T11:51:36.666Z,10.32
2018-11-03T11:56:40.001Z,10.90
2018-11-03T12:01:43.263Z,11.90
2018-11-03T12:06:46.547Z,10.05
2018-11-03T12:11:49.840Z,9.33
2018-11-03T12:16:53.140Z,8.93
2018-11-03T12:50:07.597Z,5.80
2018-11-03T12:55:11.266Z,4.93
2018-11-03T13:00:15.674Z,5.05
2018-11-03T13:05:19.069Z,4.67
2018-11-03T13:10:22.382Z,4.40
2018-11-03T13:15:25.669Z,4.08
2018-11-03T13:20:28.973Z,3.92
2018-11-03T13:25:32.258Z,3.92
2018-11-03T13:30:35.539Z,3.60
2018-11-03T13:35:38.830Z,3.35
2018-11-03T13:40:42.290Z,3.33
2018-11-03T13:45:45.598Z,3.45
2018-11-03T13:50:49.781Z,2.98
2018-11-03T13:55:53.075Z,2.90
2018-11-03T14:00:56.434Z,2.75
2018-11-03T14:05:59.745Z,2.47
2018-11-03T14:11:03.210Z,2.98
2018-11-03T14:16:06.470Z,2.60
2018-11-03T14:21:09.773Z,2.80
2018-11-03T14:26:13.330Z,2.62
2018-11-03T14:31:16.730Z,2.87
2018-11-03T14:36:20.197Z,3.17
2018-11-03T14:41:23.721Z,2.90
2018-11-03T14:46:27.844Z,2.90
2018-11-03T14:51:31.154Z,3.25
2018-11-03T14:56:35.014Z,4.35
2018-11-03T15:01:38.310Z,4.53
2018-11-03T15:06:42.266Z,5.50
2018-11-03T15:11:45.554Z,5.78
2018-11-03T15:16:48.940Z,6.75
2018-11-03T15:21:53.169Z,5.70
2018-11-03T15:26:56.458Z,6.53
2018-11-03T15:31:59.954Z,6.70
2018-11-03T15:37:03.230Z,7.03
2018-11-03T15:42:06.522Z,6.75
2018-11-03T15:47:09.889Z,6.40
2018-11-03T15:52:13.518Z,6.80
2018-11-03T15:57:16.845Z,6.60
2018-11-03T16:02:20.150Z,6.20
2018-11-03T16:07:23.447Z,5.87
2018-11-03T16:12:26.854Z,5.30
2018-11-03T16:17:30.412Z,5.40
2018-11-03T16:22:33.872Z,6.10
2018-11-03T16:27:37.559Z,6.30
2018-11-03T16:32:41.103Z,5.42
2018-11-03T16:37:44.463Z,4.47
2018-11-03T16:42:47.777Z,5.28
2018-11-03T16:47:51.056Z,4.97
2018-11-03T16:52:54.340Z,5.60
2018-11-03T16:57:57.617Z,5.42
2018-11-03T17:03:00.904Z,5.20
2018-11-03T17:08:04.342Z,5.00
2018-11-03T17:13:07.655Z,4.25
2018-11-03T17:18:10.933Z,4.87
2018-11-03T17:23:14.228Z,4.90
2018-11-03T17:28:17.524Z,4.70
2018-11-03T17:33:20.810Z,4.63
2018-11-03T17:38:24.085Z,3.52
2018-11-03T17:43:27.365Z,4.33
2018-11-03T17:48:30.761Z,3.85
2018-11-03T17:53:34.053Z,3.58
2018-11-03T17:58:37.337Z,3.72
2018-11-03T18:03:40.621Z,3.33
2018-11-03T18:08:43.917Z,3.25
2018-11-03T18:13:47.195Z,3.08
2018-11-03T18:18:51.242Z,3.00
2018-11-03T18:23:54.591Z,3.58
2018-11-03T18:28:57.942Z,2.92
2018-11-03T18:34:01.361Z,2.33
2018-11-03T18:39:05.995Z,2.65
2018-11-03T18:44:09.658Z,3.80
2018-11-03T18:49:12.947Z,2.95
2018-11-03T18:54:16.828Z,2.50
2018-11-03T18:59:20.117Z,2.90
2018-11-03T19:04:23.406Z,2.50
2018-11-03T19:09:26.778Z,2.70
2018-11-03T19:14:30.000Z,2.85
2018-11-03T19:19:33.291Z,2.87
2018-11-03T19:24:36.573Z,2.60
2018-11-03T19:29:39.977Z,2.25
2018-11-03T19:34:43.886Z,2.60
2018-11-03T19:39:47.165Z,2.27
2018-11-03T19:44:50.506Z,2.10
2018-11-03T19:49:53.830Z,2.45
2018-11-03T19:54:57.237Z,2.47
2018-11-03T20:00:00.515Z,2.10
2018-11-03T20:05:04.031Z,2.37
2018-11-03T20:10:07.493Z,2.12
2018-11-03T20:15:12.001Z,2.00
2018-11-03T20:20:15.517Z,1.75
2018-11-03T20:25:18.790Z,1.77
2018-11-03T20:30:22.073Z,2.20
2018-11-03T20:35:25.372Z,2.35
2018-11-03T20:40:28.645Z,2.10
2018-11-03T20:45:31.924Z,2.25
2018-11-03T20:50:35.206Z,1.87
2018-11-03T20:55:38.487Z,2.12
2018-11-03T21:00:41.778Z,2.22
2018-11-03T21:05:45.079Z,2.10
2018-11-03T21:10:48.387Z,1.90
2018-11-03T21:15:51.682Z,2.10
2018-11-03T21:20:55.255Z,2.33
2018-11-03T21:25:58.571Z,2.02
2018-11-03T21:31:01.850Z,2.10
2018-11-03T21:36:05.142Z,2.30
2018-11-03T21:41:08.594Z,2.15
2018-11-03T21:46:11.977Z,1.83
2018-11-03T21:51:15.284Z,2.00
2018-11-03T21:56:18.818Z,1.75
2018-11-03T22:01:22.306Z,1.40
2018-11-03T22:06:25.642Z,1.65
2018-11-03T22:11:29.791Z,1.70
2018-11-03T22:16:33.169Z,1.87
2018-11-03T22:21:36.539Z,1.50
2018-11-03T22:26:39.832Z,1.70
2018-11-03T22:31:43.294Z,1.70
2018-11-03T22:36:46.585Z,1.85
2018-11-03T22:41:49.884Z,1.77
2018-11-03T22:46:54.197Z,1.45
2018-11-03T22:51:57.545Z,1.82
2018-11-03T22:57:00.830Z,1.40
2018-11-03T23:02:04.203Z,1.87
2018-11-03T23:07:07.526Z,1.80
2018-11-03T23:12:10.870Z,1.57
2018-11-03T23:17:14.191Z,1.80
2018-11-03T23:22:17.582Z,1.90
2018-11-03T23:27:20.863Z,1.40
2018-11-03T23:32:24.578Z,1.62
2018-11-03T23:37:28.190Z,2.02
2018-11-03T23:42:31.950Z,1.77
2018-11-03T23:47:35.568Z,1.45
2018-11-03T23:52:43.275Z,1.60
2018-11-03T23:57:46.715Z,1.63
